Time;durP1;ratioP1;P1;durP2;ratioP2;P2;SDS_P1;SDS_P2;PMS_P1;PMS_P2;Temp;Humidity;BMP_temperature;BMP_pressure;BME280_temperature;BME280_humidity;BME280_pressure;Samples;Min_cycle;Max_cycle;Signal;HPM_P1;HPM_P2
2022/04/24 00:01:04;;;;;;;;;;;;;;;17.44;42.90;100240.72;5102867;28;781;-57
2022/04/24 00:03:29;;;;;;;;;;;;;;;17.48;43.07;100245.66;5097234;28;908;-56
2022/04/24 00:05:55;;;;;;;;;;;;;;;17.41;43.40;100235.81;5097229;28;761;-56
2022/04/24 00:08:20;;;;;;;;;;;;;;;17.42;43.28;100242.13;5097682;28;767;-55
2022/04/24 00:10:46;;;;;;;;;;;;;;;17.36;43.43;100244.13;5096986;28;837;-56
2022/04/24 00:13:11;;;;;;;;;;;;;;;17.41;43.16;100246.00;5098899;28;1015;-55
2022/04/24 00:15:39;;;;;;;;;;;;;;;17.43;43.27;100239.09;5097468;28;1968;-55
2022/04/24 00:18:06;;;;;;;;;;;;;;;17.42;42.93;100245.69;5096730;28;912;-56
2022/04/24 00:20:31;;;;;;;;;;;;;;;17.40;43.21;100256.19;5097060;28;768;-56
2022/04/24 00:22:57;;;;;;;;;;;;;;;17.38;43.11;100258.38;5097342;28;781;-56
2022/04/24 00:25:22;;;;;;;;;;;;;;;17.40;43.03;100261.69;5102401;28;866;-57
2022/04/24 00:27:48;;;;;;;;;;;;;;;17.32;43.04;100253.22;5097028;28;810;-57
2022/04/24 00:30:13;;;;;;;;;;;;;;;17.34;42.81;100262.81;5097276;28;769;-57
2022/04/24 00:32:39;;;;;;;;;;;;;;;17.29;43.05;100249.13;5096597;28;891;-57
2022/04/24 00:35:04;;;;;;;;;;;;;;;17.33;42.69;100266.66;5096853;28;765;-57
2022/04/24 00:37:30;;;;;;;;;;;;;;;17.32;42.94;100261.47;5098743;28;1976;-56
2022/04/24 00:39:55;;;;;;;;;;;;;;;17.28;42.85;100264.81;5096797;28;777;-57
2022/04/24 00:42:21;;;;;;;;;;;;;;;17.34;42.97;100262.81;5096776;28;797;-57
2022/04/24 00:44:46;;;;;;;;;;;;;;;17.35;42.98;100264.47;5096957;28;841;-57
2022/04/24 00:47:27;;;;;;;;;;;;;;;17.33;43.11;100269.41;5084643;28;1253;-57
2022/04/24 00:49:52;;;;;;;;;;;;;;;17.29;43.27;100265.63;5078273;28;806;-57
2022/04/24 00:52:18;;;;;;;;;;;;;;;17.31;42.96;100271.66;5102639;28;836;-57
2022/04/24 00:54:43;;;;;;;;;;;;;;;17.33;43.07;100269.41;5096468;28;873;-57
2022/04/24 00:57:09;;;;;;;;;;;;;;;17.35;42.99;100269.13;5099871;28;1886;-58
2022/04/24 00:59:34;;;;;;;;;;;;;;;17.33;43.01;100279.59;5101137;28;865;-57
2022/04/24 01:02:02;;;;;;;;;;;;;;;17.30;42.98;100283.75;5100428;28;824;-57
2022/04/24 01:04:27;;;;;;;;;;;;;;;17.29;42.92;100282.09;5102955;28;753;-57
2022/04/24 01:06:53;;;;;;;;;;;;;;;17.27;42.95;100285.16;5100390;28;866;-57
2022/04/24 01:09:19;;;;;;;;;;;;;;;17.24;42.90;100284.91;5100737;28;1476;-58
2022/04/24 01:11:45;;;;;;;;;;;;;;;17.18;42.92;100281.41;5100670;28;793;-57
2022/04/24 01:14:11;;;;;;;;;;;;;;;17.21;42.84;100286.31;5100555;28;1004;-57
2022/04/24 01:16:36;;;;;;;;;;;;;;;17.20;42.86;100278.38;5105834;28;1905;-57
2022/04/24 01:19:02;;;;;;;;;;;;;;;17.17;42.87;100276.19;5100550;28;750;-57
2022/04/24 01:21:27;;;;;;;;;;;;;;;17.20;42.91;100273.69;5100704;28;886;-57
2022/04/24 01:23:53;;;;;;;;;;;;;;;17.28;43.12;100272.25;5100862;28;749;-57
2022/04/24 01:26:18;;;;;;;;;;;;;;;17.39;43.35;100273.78;5082262;28;756;-57
2022/04/24 01:28:44;;;;;;;;;;;;;;;17.47;43.24;100274.25;5102881;28;949;-57
2022/04/24 01:31:09;;;;;;;;;;;;;;;17.47;43.54;100283.28;5100462;28;838;-57
2022/04/24 01:33:35;;;;;;;;;;;;;;;17.50;43.72;100276.41;5099916;28;1026;-57
2022/04/24 01:36:00;;;;;;;;;;;;;;;17.47;43.88;100277.00;5100004;28;1902;-57
2022/04/24 01:38:28;;;;;;;;;;;;;;;17.49;43.71;100283.00;5100082;28;825;-57
2022/04/24 01:40:54;;;;;;;;;;;;;;;17.51;43.83;100289.03;5100368;28;806;-56
2022/04/24 01:43:20;;;;;;;;;;;;;;;17.48;44.05;100284.13;5106414;28;920;-57
2022/04/24 01:45:45;;;;;;;;;;;;;;;17.55;44.32;100276.34;5100347;28;787;-57
2022/04/24 01:48:10;;;;;;;;;;;;;;;17.67;44.20;100290.50;5100369;28;985;-57
2022/04/24 01:50:36;;;;;;;;;;;;;;;17.59;44.35;100291.16;5099943;28;800;-57
2022/04/24 01:53:01;;;;;;;;;;;;;;;17.62;44.65;100285.06;5099994;28;849;-57
2022/04/24 01:55:27;;;;;;;;;;;;;;;17.68;44.61;100288.56;5102400;28;1901;-57
2022/04/24 01:57:52;;;;;;;;;;;;;;;17.68;44.82;100296.81;5099875;28;718;-57
2022/04/24 02:00:18;;;;;;;;;;;;;;;17.72;44.62;100293.19;5099604;28;853;-57
2022/04/24 02:02:43;;;;;;;;;;;;;;;17.77;44.65;100297.81;5099229;28;870;-57
2022/04/24 02:05:09;;;;;;;;;;;;;;;17.77;44.63;100298.63;5100028;28;814;-56
2022/04/24 02:07:34;;;;;;;;;;;;;;;17.77;44.58;100293.13;5106031;28;864;-56
2022/04/24 02:10:00;;;;;;;;;;;;;;;17.71;44.90;100299.81;5099355;28;869;-57
2022/04/24 02:12:25;;;;;;;;;;;;;;;17.79;44.63;100301.91;5099582;28;1077;-57
2022/04/24 02:14:50;;;;;;;;;;;;;;;17.86;44.83;100311.72;5099246;28;838;-57
2022/04/24 02:17:16;;;;;;;;;;;;;;;17.83;44.67;100301.31;5098726;28;1913;-57
2022/04/24 02:19:41;;;;;;;;;;;;;;;17.83;44.73;100295.81;5102322;28;842;-57
2022/04/24 02:22:07;;;;;;;;;;;;;;;17.78;44.87;100294.78;5099034;28;879;-57
2022/04/24 02:24:32;;;;;;;;;;;;;;;17.83;44.93;100293.88;5099241;28;781;-57
2022/04/24 02:26:57;;;;;;;;;;;;;;;17.85;44.87;100294.41;5099714;28;901;-57
2022/04/24 02:29:23;;;;;;;;;;;;;;;17.88;44.63;100295.75;5099001;28;757;-57
2022/04/24 02:31:48;;;;;;;;;;;;;;;17.82;44.85;100294.19;5098476;28;927;-57
2022/04/24 02:34:14;;;;;;;;;;;;;;;17.83;44.83;100295.81;5112094;28;998;-56
2022/04/24 02:36:39;;;;;;;;;;;;;;;17.84;44.77;100298.28;5118590;28;1913;-57
2022/04/24 02:39:05;;;;;;;;;;;;;;;17.81;44.97;100303.53;5118157;28;833;-56
2022/04/24 02:41:30;;;;;;;;;;;;;;;17.88;44.64;100312.25;5118625;28;935;-57
2022/04/24 02:43:55;;;;;;;;;;;;;;;17.86;44.45;100312.53;5118370;28;766;-54
2022/04/24 02:46:21;;;;;;;;;;;;;;;17.87;44.59;100307.88;5107234;28;809;-56
2022/04/24 02:48:46;;;;;;;;;;;;;;;17.86;44.38;100315.28;5098420;28;1140;-56
2022/04/24 02:51:12;;;;;;;;;;;;;;;17.83;44.64;100309.56;5098987;28;866;-56
2022/04/24 02:53:37;;;;;;;;;;;;;;;17.84;44.31;100314.78;5098599;28;827;-56
2022/04/24 02:56:03;;;;;;;;;;;;;;;17.81;44.62;100320.03;5098329;28;2376;-55
2022/04/24 02:58:28;;;;;;;;;;;;;;;17.83;44.62;100328.81;5098660;28;849;-55
2022/04/24 03:00:55;;;;;;;;;;;;;;;17.85;44.42;100338.44;5098394;28;873;-55
2022/04/24 03:03:20;;;;;;;;;;;;;;;17.86;44.37;100333.75;5098332;28;843;-56
2022/04/24 03:05:49;;;;;;;;;;;;;;;17.87;44.56;100335.38;5098643;28;814;-54
2022/04/24 03:08:15;;;;;;;;;;;;;;;17.84;44.45;100336.78;5098583;28;1523;-55
2022/04/24 03:10:41;;;;;;;;;;;;;;;17.87;44.59;100347.19;5101260;28;814;-55
2022/04/24 03:13:06;;;;;;;;;;;;;;;17.83;44.36;100345.31;5098345;28;972;-54
2022/04/24 03:15:32;;;;;;;;;;;;;;;17.80;44.50;100349.47;5098662;28;1974;-55
2022/04/24 03:17:58;;;;;;;;;;;;;;;17.83;44.47;100351.63;5097704;28;901;-56
2022/04/24 03:20:23;;;;;;;;;;;;;;;17.85;44.53;100357.69;5097995;28;858;-52
2022/04/24 03:22:51;;;;;;;;;;;;;;;17.87;44.67;100347.19;5080123;28;970;-51
2022/04/24 03:25:17;;;;;;;;;;;;;;;17.83;44.49;100361.84;5111441;28;1469;-51
2022/04/24 03:27:42;;;;;;;;;;;;;;;17.88;44.40;100359.00;5117434;28;797;-54
2022/04/24 03:30:09;;;;;;;;;;;;;;;17.85;44.39;100365.09;5097872;28;869;-55
2022/04/24 03:32:35;;;;;;;;;;;;;;;17.85;44.33;100367.84;5108218;28;862;-52
2022/04/24 03:35:01;;;;;;;;;;;;;;;17.85;44.51;100376.09;5098147;28;809;-52
2022/04/24 03:37:26;;;;;;;;;;;;;;;17.87;44.34;100379.38;5101283;28;1914;-55
2022/04/24 03:39:51;;;;;;;;;;;;;;;17.87;44.46;100380.19;5104457;28;1039;-56
2022/04/24 03:42:17;;;;;;;;;;;;;;;17.93;44.33;100378.25;5117307;28;821;-54
2022/04/24 03:44:43;;;;;;;;;;;;;;;17.90;44.43;100389.81;5117419;28;889;-55
2022/04/24 03:47:08;;;;;;;;;;;;;;;17.88;44.42;100389.25;5111470;28;886;-49
2022/04/24 03:49:34;;;;;;;;;;;;;;;17.95;44.36;100387.03;5103901;28;911;-51
2022/04/24 03:51:59;;;;;;;;;;;;;;;17.89;44.38;100389.00;5097444;28;913;-57
2022/04/24 03:54:25;;;;;;;;;;;;;;;17.92;44.38;100395.84;5097477;28;801;-58
2022/04/24 03:56:51;;;;;;;;;;;;;;;17.89;44.71;100397.25;5097754;28;1918;-57
2022/04/24 03:59:16;;;;;;;;;;;;;;;17.91;44.61;100385.97;5097748;28;915;-56
2022/04/24 04:01:41;;;;;;;;;;;;;;;18.00;44.51;100400.72;5101649;28;834;-56
2022/04/24 04:04:07;;;;;;;;;;;;;;;17.97;44.79;100400.50;5101174;28;889;-55
2022/04/24 04:06:32;;;;;;;;;;;;;;;18.03;44.72;100402.88;5097478;28;793;-56
2022/04/24 04:08:58;;;;;;;;;;;;;;;18.05;44.66;100400.66;5097715;28;786;-56
2022/04/24 04:11:23;;;;;;;;;;;;;;;18.01;44.64;100410.63;5097028;28;790;-56
2022/04/24 04:13:49;;;;;;;;;;;;;;;17.99;44.75;100398.25;5099613;28;1225;-56
2022/04/24 04:16:14;;;;;;;;;;;;;;;18.04;44.62;100401.78;5099732;28;1959;-54
2022/04/24 04:18:40;;;;;;;;;;;;;;;18.09;44.92;100415.47;5103379;27;1222;-56
2022/04/24 04:21:05;;;;;;;;;;;;;;;18.10;44.81;100414.38;5099876;28;1249;-56
2022/04/24 04:23:31;;;;;;;;;;;;;;;18.03;44.41;100422.13;5099326;28;1197;-56
2022/04/24 04:25:56;;;;;;;;;;;;;;;17.89;43.90;100418.41;5101977;28;1241;-54
2022/04/24 04:28:21;;;;;;;;;;;;;;;17.70;43.05;100424.66;5100707;28;1170;-55
2022/04/24 04:30:47;;;;;;;;;;;;;;;17.52;42.41;100422.63;5098985;28;1281;-56
2022/04/24 04:33:12;;;;;;;;;;;;;;;17.33;41.54;100420.56;5100980;28;1146;-55
2022/04/24 04:35:38;;;;;;;;;;;;;;;17.22;41.27;100424.50;5098972;28;1960;-56
2022/04/24 04:38:04;;;;;;;;;;;;;;;17.15;40.69;100429.50;5101056;28;1317;-56
2022/04/24 04:40:30;;;;;;;;;;;;;;;17.02;40.80;100426.28;5100355;28;1102;-56
2022/04/24 04:42:56;;;;;;;;;;;;;;;16.98;40.50;100433.47;5097978;28;1052;-56
2022/04/24 04:45:24;;;;;;;;;;;;;;;16.89;40.16;100437.94;5100424;28;1234;-57
2022/04/24 04:47:50;;;;;;;;;;;;;;;16.81;40.31;100441.22;5097982;28;1091;-49
2022/04/24 04:50:15;;;;;;;;;;;;;;;16.77;40.51;100430.81;5096775;28;825;-53
2022/04/24 04:52:41;;;;;;;;;;;;;;;16.92;41.26;100442.84;5098296;28;937;-53
2022/04/24 04:55:07;;;;;;;;;;;;;;;17.07;42.16;100434.50;5096597;28;881;-54
2022/04/24 04:57:32;;;;;;;;;;;;;;;17.21;43.02;100437.44;5097323;28;1910;-55
2022/04/24 04:59:58;;;;;;;;;;;;;;;17.30;43.86;100437.63;5096596;28;810;-52
2022/04/24 05:02:23;;;;;;;;;;;;;;;17.38;44.28;100442.53;5101135;28;889;-55
2022/04/24 05:04:49;;;;;;;;;;;;;;;17.49;44.35;100445.19;5097976;28;793;-55
2022/04/24 05:07:14;;;;;;;;;;;;;;;17.56;44.52;100448.44;5100539;28;978;-56
2022/04/24 05:09:40;;;;;;;;;;;;;;;17.61;44.80;100449.22;5096616;28;825;-54
2022/04/24 05:12:06;;;;;;;;;;;;;;;17.68;45.16;100443.34;5096691;28;833;-56
2022/04/24 05:14:32;;;;;;;;;;;;;;;17.70;45.19;100440.34;5096294;28;1338;-56
2022/04/24 05:16:57;;;;;;;;;;;;;;;17.78;45.41;100448.78;5096699;28;1909;-55
2022/04/24 05:19:23;;;;;;;;;;;;;;;17.84;45.35;100434.97;5098441;28;1329;-56
2022/04/24 05:21:49;;;;;;;;;;;;;;;17.85;45.45;100436.59;5096133;28;837;-56
2022/04/24 05:24:14;;;;;;;;;;;;;;;17.87;45.41;100439.91;5096527;28;853;-56
2022/04/24 05:26:40;;;;;;;;;;;;;;;17.95;45.41;100444.81;5097007;28;1045;-56
2022/04/24 05:29:06;;;;;;;;;;;;;;;17.98;45.46;100437.88;5115898;28;793;-56
2022/04/24 05:31:31;;;;;;;;;;;;;;;18.00;45.79;100444.72;5109691;28;982;-55
2022/04/24 05:33:57;;;;;;;;;;;;;;;18.07;45.61;100444.41;5097142;28;812;-55
2022/04/24 05:36:22;;;;;;;;;;;;;;;18.02;45.65;100445.28;5096079;28;1965;-57
2022/04/24 05:38:48;;;;;;;;;;;;;;;18.11;45.63;100449.00;5098479;28;1060;-56
2022/04/24 05:41:13;;;;;;;;;;;;;;;18.13;45.85;100449.56;5100314;28;1099;-55
2022/04/24 05:43:39;;;;;;;;;;;;;;;18.21;45.90;100453.59;5102066;28;1029;-56
2022/04/24 05:46:04;;;;;;;;;;;;;;;18.21;45.80;100450.03;5103140;28;1218;-56
2022/04/24 05:48:30;;;;;;;;;;;;;;;18.13;45.55;100448.72;5102739;28;1301;-56
2022/04/24 05:50:55;;;;;;;;;;;;;;;17.97;45.14;100450.00;5102960;28;1324;-56
2022/04/24 05:53:21;;;;;;;;;;;;;;;17.76;43.82;100456.47;5101863;28;1254;-55
2022/04/24 05:55:46;;;;;;;;;;;;;;;17.52;42.55;100450.13;5102896;28;1909;-56
2022/04/24 05:58:12;;;;;;;;;;;;;;;17.38;41.82;100452.72;5104481;28;1206;-56
2022/04/24 06:00:38;;;;;;;;;;;;;;;17.24;41.12;100450.59;5103975;28;1246;-57
2022/04/24 06:03:04;;;;;;;;;;;;;;;17.16;40.71;100458.63;5103174;28;1319;-56
2022/04/24 06:05:29;;;;;;;;;;;;;;;17.01;40.40;100456.78;5106990;28;1260;-55
2022/04/24 06:07:55;;;;;;;;;;;;;;;16.92;40.15;100459.31;5103802;28;1159;-55
2022/04/24 06:10:20;;;;;;;;;;;;;;;16.86;39.81;100454.94;5101587;28;1218;-55
2022/04/24 06:12:52;;;;;;;;;;;;;;;16.88;40.86;100463.72;5102213;28;1249;-56
2022/04/24 06:15:21;;;;;;;;;;;;;;;17.05;41.89;100460.63;5102706;28;1198;-56
2022/04/24 06:17:50;;;;;;;;;;;;;;;17.20;43.13;100465.19;5102294;28;1898;-56
2022/04/24 06:20:15;;;;;;;;;;;;;;;17.37;43.62;100471.09;5101729;28;1293;-56
2022/04/24 06:22:42;;;;;;;;;;;;;;;17.41;44.42;100469.44;5101973;28;1234;-56
2022/04/24 06:25:07;;;;;;;;;;;;;;;17.52;44.96;100472.13;5103796;28;1222;-56
2022/04/24 06:27:33;;;;;;;;;;;;;;;17.61;44.99;100470.38;5103963;28;1296;-56
2022/04/24 06:29:59;;;;;;;;;;;;;;;17.63;45.25;100476.41;5106933;28;1191;-53
2022/04/24 06:32:28;;;;;;;;;;;;;;;17.75;45.53;100482.38;5111387;28;1082;-54
2022/04/24 06:34:54;;;;;;;;;;;;;;;17.86;45.49;100496.81;5099613;28;959;-55
2022/04/24 06:37:19;;;;;;;;;;;;;;;17.83;45.52;100482.84;5098996;28;1980;-55
2022/04/24 06:39:44;;;;;;;;;;;;;;;17.88;45.83;100485.53;5099094;28;774;-56
2022/04/24 06:42:10;;;;;;;;;;;;;;;17.90;45.97;100475.06;5099173;28;935;-54
2022/04/24 06:44:36;;;;;;;;;;;;;;;17.95;45.58;100478.63;5098845;28;814;-55
2022/04/24 06:47:01;;;;;;;;;;;;;;;18.01;45.78;100479.41;5102495;28;854;-55
2022/04/24 06:49:27;;;;;;;;;;;;;;;17.94;45.88;100474.22;5099195;28;742;-50
2022/04/24 06:51:52;;;;;;;;;;;;;;;18.02;46.00;100475.53;5098734;28;750;-55
2022/04/24 06:54:17;;;;;;;;;;;;;;;18.03;46.21;100488.16;5097714;28;844;-55
2022/04/24 06:56:43;;;;;;;;;;;;;;;18.10;46.16;100477.66;5099215;28;1901;-50
2022/04/24 06:59:08;;;;;;;;;;;;;;;18.08;46.06;100479.88;5098324;28;1013;-52
2022/04/24 07:01:34;;;;;;;;;;;;;;;18.13;46.06;100477.06;5102585;28;1218;-55
2022/04/24 07:03:59;;;;;;;;;;;;;;;18.05;45.69;100485.16;5102311;28;1193;-56
2022/04/24 07:06:25;;;;;;;;;;;;;;;17.93;45.04;100485.53;5109665;28;1068;-55
2022/04/24 07:08:50;;;;;;;;;;;;;;;17.72;43.77;100484.84;5118061;28;858;-55
2022/04/24 07:11:17;;;;;;;;;;;;;;;17.58;42.54;100484.69;5118269;28;772;-55
2022/04/24 07:13:43;;;;;;;;;;;;;;;17.41;41.70;100482.38;5106848;28;1118;-57
2022/04/24 07:16:09;;;;;;;;;;;;;;;17.26;41.04;100475.03;5098368;28;1898;-56
2022/04/24 07:18:35;;;;;;;;;;;;;;;17.14;40.80;100472.66;5098639;28;993;-53
2022/04/24 07:21:02;;;;;;;;;;;;;;;17.05;40.39;100469.66;5097951;28;880;-55
2022/04/24 07:23:28;;;;;;;;;;;;;;;16.98;40.12;100462.84;5099546;28;968;-57
2022/04/24 07:25:53;;;;;;;;;;;;;;;16.85;40.09;100475.25;5102003;28;1214;-57
2022/04/24 07:28:19;;;;;;;;;;;;;;;16.85;39.64;100469.78;5098827;28;1328;-57
2022/04/24 07:30:45;;;;;;;;;;;;;;;16.74;39.52;100469.00;5101027;28;1195;-57
2022/04/24 07:33:11;;;;;;;;;;;;;;;16.67;39.62;100473.97;5102763;28;1322;-57
2022/04/24 07:35:37;;;;;;;;;;;;;;;16.77;40.19;100480.25;5100315;28;1969;-57
2022/04/24 07:38:03;;;;;;;;;;;;;;;17.04;42.06;100473.53;5102025;28;1206;-57
2022/04/24 07:40:29;;;;;;;;;;;;;;;17.35;44.21;100473.34;5100190;28;1325;-57
2022/04/24 07:42:55;;;;;;;;;;;;;;;17.72;46.08;100466.41;5101430;28;1207;-57
2022/04/24 07:45:22;;;;;;;;;;;;;;;18.02;47.13;100474.69;5102177;28;1257;-57
2022/04/24 07:47:48;;;;;;;;;;;;;;;18.28;47.75;100473.31;5100603;28;1305;-57
2022/04/24 07:50:13;;;;;;;;;;;;;;;18.58;48.05;100470.50;5099721;28;1210;-57
2022/04/24 07:52:39;;;;;;;;;;;;;;;18.56;48.14;100467.22;5101094;28;1198;-57
2022/04/24 07:55:05;;;;;;;;;;;;;;;18.30;47.37;100464.78;5100959;28;1213;-57
2022/04/24 07:57:30;;;;;;;;;;;;;;;18.09;46.05;100466.91;5098582;28;1921;-57
2022/04/24 07:59:55;;;;;;;;;;;;;;;17.83;44.55;100467.16;5100773;28;1221;-57
2022/04/24 08:02:21;;;;;;;;;;;;;;;17.62;43.21;100466.53;5097181;28;1110;-57
2022/04/24 08:04:46;;;;;;;;;;;;;;;17.45;42.33;100462.25;5100117;28;1229;-54
2022/04/24 08:07:12;;;;;;;;;;;;;;;17.31;41.12;100460.47;5097573;28;774;-56
2022/04/24 08:09:37;;;;;;;;;;;;;;;17.15;40.51;100463.28;5097419;28;718;-56
2022/04/24 08:12:03;;;;;;;;;;;;;;;17.04;40.32;100457.06;5096754;28;754;-55
2022/04/24 08:14:29;;;;;;;;;;;;;;;16.94;40.15;100446.13;5097336;28;993;-56
2022/04/24 08:16:55;;;;;;;;;;;;;;;17.10;41.45;100450.41;5105908;28;1910;-56
2022/04/24 08:19:21;;;;;;;;;;;;;;;17.52;44.30;100452.88;5099793;28;972;-55
2022/04/24 08:21:46;;;;;;;;;;;;;;;18.10;46.64;100455.66;5099614;28;1146;-56
2022/04/24 08:24:12;;;;;;;;;;;;;;;18.35;47.96;100452.88;5102187;28;1312;-57
2022/04/24 08:26:37;;;;;;;;;;;;;;;18.60;48.61;100444.31;5098961;28;1226;-57
2022/04/24 08:29:02;;;;;;;;;;;;;;;18.69;48.38;100438.97;5099250;28;1206;-57
2022/04/24 08:31:28;;;;;;;;;;;;;;;17.86;48.79;100446.50;5101177;28;1281;-57
2022/04/24 08:33:57;;;;;;;;;;;;;;;17.35;47.26;100434.03;5100457;28;1276;-56
2022/04/24 08:36:25;;;;;;;;;;;;;;;17.33;45.17;100439.00;5097588;28;1934;-56
2022/04/24 08:38:51;;;;;;;;;;;;;;;17.30;43.11;100443.13;5101879;28;1245;-56
2022/04/24 08:41:23;;;;;;;;;;;;;;;17.25;41.90;100432.16;5116408;28;842;-53
2022/04/24 08:43:48;;;;;;;;;;;;;;;17.10;41.25;100428.44;5109003;28;1160;-56
2022/04/24 08:46:14;;;;;;;;;;;;;;;17.03;40.87;100432.63;5097303;28;1305;-57
2022/04/24 08:48:43;;;;;;;;;;;;;;;17.05;40.49;100436.69;5100033;28;1041;-56
2022/04/24 08:51:09;;;;;;;;;;;;;;;17.15;41.78;100435.00;5081818;28;1305;-53
2022/04/24 08:53:34;;;;;;;;;;;;;;;17.51;44.67;100445.72;5083520;28;1250;-55
2022/04/24 08:56:00;;;;;;;;;;;;;;;18.16;48.00;100445.41;5098177;28;1914;-56
2022/04/24 08:58:26;;;;;;;;;;;;;;;18.77;49.37;100441.03;5098718;28;1235;-56
2022/04/24 09:00:51;;;;;;;;;;;;;;;19.18;49.71;100436.09;5100866;28;1254;-56
2022/04/24 09:03:16;;;;;;;;;;;;;;;18.72;51.37;100441.13;5100528;28;1234;-56
2022/04/24 09:05:42;;;;;;;;;;;;;;;18.35;50.33;100437.19;5097534;28;1202;-57
2022/04/24 09:08:08;;;;;;;;;;;;;;;16.73;51.68;100429.75;5100900;28;1222;-57
2022/04/24 09:10:47;;;;;;;;;;;;;;;16.98;48.32;100427.16;5099939;28;1256;-57
2022/04/24 09:13:12;;;;;;;;;;;;;;;17.22;44.72;100425.34;5099015;28;1210;-57
2022/04/24 09:15:38;;;;;;;;;;;;;;;17.30;43.18;100426.66;5098964;28;1992;-57
2022/04/24 09:18:03;;;;;;;;;;;;;;;17.23;42.21;100426.16;5102535;28;1258;-56
2022/04/24 09:20:34;;;;;;;;;;;;;;;17.16;41.78;100425.66;5104102;28;1317;-57
2022/04/24 09:23:03;;;;;;;;;;;;;;;17.04;41.06;100421.34;5104891;28;1143;-57
2022/04/24 09:25:41;;;;;;;;;;;;;;;16.99;40.43;100415.06;5101191;28;1242;-57
2022/04/24 09:28:06;;;;;;;;;;;;;;;16.95;41.28;100414.00;5103777;28;1207;-57
2022/04/24 09:30:35;;;;;;;;;;;;;;;17.26;43.09;100420.06;5103628;28;1288;-57
2022/04/24 09:33:01;;;;;;;;;;;;;;;17.75;46.63;100421.88;5086312;28;1242;-56
2022/04/24 09:35:27;;;;;;;;;;;;;;;18.15;48.67;100413.50;5102175;28;1218;-57
2022/04/24 09:38:13;;;;;;;;;;;;;;;18.41;49.69;100416.75;5102697;28;1982;-56
2022/04/24 09:40:39;;;;;;;;;;;;;;;18.62;49.52;100416.47;5104614;28;1291;-55
2022/04/24 09:43:07;;;;;;;;;;;;;;;18.30;48.32;100395.97;5104295;28;1086;-55
2022/04/24 09:45:32;;;;;;;;;;;;;;;18.06;46.46;100405.06;5085350;28;1151;-56
2022/04/24 09:48:02;;;;;;;;;;;;;;;17.85;44.52;100407.19;5104050;28;1102;-56
2022/04/24 09:50:29;;;;;;;;;;;;;;;17.60;43.38;100409.06;5103676;28;1083;-56
2022/04/24 09:52:55;;;;;;;;;;;;;;;17.47;41.99;100397.94;5085870;28;1314;-56
2022/04/24 09:55:22;;;;;;;;;;;;;;;17.34;41.29;100402.97;5100061;28;837;-57
2022/04/24 09:57:48;;;;;;;;;;;;;;;17.17;40.86;100399.84;5083140;28;1901;-55
2022/04/24 10:00:15;;;;;;;;;;;;;;;17.08;40.59;100392.19;5100701;28;770;-55
2022/04/24 10:02:41;;;;;;;;;;;;;;;16.95;40.40;100398.31;5101241;28;1118;-56
2022/04/24 10:05:07;;;;;;;;;;;;;;;16.88;40.07;100397.81;5102224;28;1289;-56
2022/04/24 10:07:32;;;;;;;;;;;;;;;16.91;39.89;100394.50;5084029;28;1155;-55
2022/04/24 10:09:58;;;;;;;;;;;;;;;16.97;41.05;100398.88;5083422;28;1108;-56
2022/04/24 10:12:23;;;;;;;;;;;;;;;17.15;42.41;100402.84;5085180;28;1158;-55
2022/04/24 10:14:50;;;;;;;;;;;;;;;17.35;43.26;100403.78;5085641;28;1412;-56
2022/04/24 10:17:34;;;;;;;;;;;;;;;17.36;43.83;100394.44;5102429;28;1897;-56
2022/04/24 10:20:02;;;;;;;;;;;;;;;17.48;44.54;100396.81;5100390;28;1245;-56
2022/04/24 10:22:37;;;;;;;;;;;;;;;17.47;44.99;100389.69;5101538;28;1386;-56
2022/04/24 10:25:03;;;;;;;;;;;;;;;17.56;44.91;100393.47;5087007;28;1321;-56
2022/04/24 10:27:42;;;;;;;;;;;;;;;17.62;45.13;100395.03;5099339;28;1185;-55
2022/04/24 10:30:10;;;;;;;;;;;;;;;17.71;45.17;100398.81;5102033;28;1214;-55
2022/04/24 10:32:36;;;;;;;;;;;;;;;17.68;45.36;100396.59;5099507;28;1337;-56
2022/04/24 10:35:12;;;;;;;;;;;;;;;17.74;45.55;100397.38;5104617;28;1254;-57
2022/04/24 10:37:38;;;;;;;;;;;;;;;17.83;45.27;100406.66;5103223;28;1988;-55
2022/04/24 10:40:10;;;;;;;;;;;;;;;17.82;45.52;100409.69;5100610;28;1254;-55
2022/04/24 10:42:36;;;;;;;;;;;;;;;17.82;45.45;100402.25;5103944;28;1284;-56
2022/04/24 10:45:05;;;;;;;;;;;;;;;17.83;45.73;100401.16;5103281;28;1238;-56
2022/04/24 10:47:42;;;;;;;;;;;;;;;17.87;45.63;100401.41;5104685;28;1016;-56
2022/04/24 10:50:08;;;;;;;;;;;;;;;17.85;45.43;100398.09;5102785;28;1273;-56
2022/04/24 10:52:43;;;;;;;;;;;;;;;17.93;45.53;100406.56;5099722;28;1047;-57
2022/04/24 10:55:26;;;;;;;;;;;;;;;17.92;45.60;100401.34;5098308;28;1419;-58
2022/04/24 10:57:54;;;;;;;;;;;;;;;17.92;45.30;100398.59;5113148;28;1913;-58
2022/04/24 11:00:22;;;;;;;;;;;;;;;17.94;45.44;100399.16;5118153;28;777;-57
2022/04/24 11:02:48;;;;;;;;;;;;;;;17.99;45.33;100399.06;5109699;28;814;-58
2022/04/24 11:05:18;;;;;;;;;;;;;;;18.03;45.59;100391.88;5099401;28;804;-58
2022/04/24 11:07:44;;;;;;;;;;;;;;;18.03;45.59;100388.31;5079959;28;890;-58
2022/04/24 11:10:10;;;;;;;;;;;;;;;18.07;45.61;100384.66;5098237;28;793;-58
2022/04/24 11:12:35;;;;;;;;;;;;;;;18.10;45.66;100392.38;5098854;28;1003;-57
2022/04/24 11:15:02;;;;;;;;;;;;;;;18.06;45.72;100390.47;5099047;28;871;-58
2022/04/24 11:17:27;;;;;;;;;;;;;;;18.09;45.63;100379.72;5097821;28;1972;-58
2022/04/24 11:19:58;;;;;;;;;;;;;;;18.16;45.40;100387.63;5098294;28;789;-57
2022/04/24 11:22:23;;;;;;;;;;;;;;;18.13;45.33;100389.03;5098396;28;857;-57
2022/04/24 11:24:48;;;;;;;;;;;;;;;18.10;45.07;100375.84;5080178;28;828;-56
2022/04/24 11:27:14;;;;;;;;;;;;;;;18.10;45.28;100373.09;5101700;28;860;-56
2022/04/24 11:29:42;;;;;;;;;;;;;;;18.07;45.27;100376.41;5097943;28;870;-56
2022/04/24 11:32:08;;;;;;;;;;;;;;;18.13;45.23;100377.16;5097303;28;918;-56
2022/04/24 11:34:33;;;;;;;;;;;;;;;18.10;44.99;100367.59;5098244;28;852;-58
2022/04/24 11:36:59;;;;;;;;;;;;;;;18.11;44.93;100374.72;5097549;28;1992;-58
2022/04/24 11:39:24;;;;;;;;;;;;;;;18.13;44.96;100368.91;5097423;28;817;-57
2022/04/24 11:41:53;;;;;;;;;;;;;;;18.12;44.85;100362.59;5104848;28;867;-57
2022/04/24 11:52:35;;;;;;;;;;;;;;;17.70;42.41;100347.66;5110718;28;790;-57
2022/04/24 11:55:01;;;;;;;;;;;;;;;17.58;41.75;100349.97;5097472;28;793;-56
2022/04/24 11:57:26;;;;;;;;;;;;;;;17.42;41.40;100352.88;5117146;28;1921;-57
2022/04/24 11:59:54;;;;;;;;;;;;;;;17.35;41.02;100349.66;5117331;28;833;-52
2022/04/24 12:02:22;;;;;;;;;;;;;;;17.28;40.71;100346.44;5092763;28;954;-57
2022/04/24 12:04:49;;;;;;;;;;;;;;;17.20;40.49;100341.56;5097721;28;1171;-55
2022/04/24 12:07:14;;;;;;;;;;;;;;;17.17;40.37;100347.63;5100547;28;1071;-56
2022/04/24 12:09:39;;;;;;;;;;;;;;;17.05;40.18;100343.31;5100760;28;1146;-57
2022/04/24 12:12:06;;;;;;;;;;;;;;;17.05;39.58;100342.50;5100118;28;1116;-56
2022/04/24 12:14:31;;;;;;;;;;;;;;;17.01;39.96;100339.53;5102307;28;1351;-57
2022/04/24 12:17:01;;;;;;;;;;;;;;;17.05;40.99;100335.06;5080700;28;1905;-56
2022/04/24 12:19:27;;;;;;;;;;;;;;;17.24;41.93;100334.38;5100482;28;1067;-55
2022/04/24 12:21:53;;;;;;;;;;;;;;;17.50;43.69;100339.63;5101632;28;1178;-53
2022/04/24 12:24:18;;;;;;;;;;;;;;;17.94;45.91;100336.69;5100703;28;1165;-56
2022/04/24 12:26:47;;;;;;;;;;;;;;;18.44;46.66;100336.31;5097741;28;964;-56
2022/04/24 12:29:15;;;;;;;;;;;;;;;18.64;47.67;100334.38;5100156;28;1217;-56
2022/04/24 12:31:41;;;;;;;;;;;;;;;18.68;47.78;100337.34;5098972;28;1055;-56
2022/04/24 12:34:06;;;;;;;;;;;;;;;18.36;46.92;100336.19;5102147;28;1324;-56
2022/04/24 12:36:31;;;;;;;;;;;;;;;18.11;45.41;100335.38;5108957;28;1956;-57
2022/04/24 12:38:57;;;;;;;;;;;;;;;17.83;43.84;100337.09;5116055;28;785;-58
2022/04/24 12:41:24;;;;;;;;;;;;;;;17.64;42.72;100332.31;5116187;28;822;-57
2022/04/24 12:43:49;;;;;;;;;;;;;;;17.45;41.64;100324.00;5112022;28;858;-57
2022/04/24 12:46:15;;;;;;;;;;;;;;;17.33;41.03;100329.06;5096165;28;1371;-57
2022/04/24 12:48:47;;;;;;;;;;;;;;;17.17;40.53;100317.41;5096532;28;1029;-54
2022/04/24 12:51:13;;;;;;;;;;;;;;;17.15;39.82;100325.91;5095970;28;797;-55
2022/04/24 12:53:38;;;;;;;;;;;;;;;16.98;39.78;100320.84;5096418;28;857;-55